Time;durP1;ratioP1;P1;durP2;ratioP2;P2;SDS_P1;SDS_P2;PMS_P1;PMS_P2;Temp;Humidity;BMP_temperature;BMP_pressure;BME280_temperature;BME280_humidity;BME280_pressure;Samples;Min_cycle;Max_cycle;Signal;HPM_P1;HPM_P2
2023/04/13 13:06:53;;;;;;;2.13;1.30;;;13.40;1.00;;;;;;5107105;28;20381;-83
2023/04/13 13:09:20;;;;;;;23.23;4.23;;;13.30;99.90;;;;;;5109193;28;20498;-89
2023/04/13 13:11:47;;;;;;;2.63;2.43;;;13.50;99.90;;;;;;5112859;28;20970;-89
2023/04/13 13:14:19;;;;;;;2.37;2.20;;;13.70;99.90;;;;;;5107049;28;20447;-88
2023/04/13 13:16:47;;;;;;;1.53;1.43;;;13.70;99.90;;;;;;5106840;28;20433;-85
2023/04/13 13:19:14;;;;;;;2.70;1.70;;;13.60;99.90;;;;;;5103057;28;20876;-82
2023/04/13 13:21:41;;;;;;;1.77;1.60;;;13.80;1.00;;;;;;5105194;28;20516;-81
2023/04/13 13:24:09;;;;;;;2.07;1.50;;;13.30;1.00;;;;;;5105042;28;20444;-85
2023/04/13 13:26:36;;;;;;;2.93;2.63;;;13.70;99.90;;;;;;5101545;28;20495;-81
2023/04/13 13:29:03;;;;;;;6.47;2.30;;;;;;;;;;5100346;28;20539;-81
2023/04/13 13:31:31;;;;;;;4.17;2.00;;;;;;;;;;5096772;28;20431;-79
2023/04/13 13:33:58;;;;;;;2.90;1.87;;;;;;;;;;5099297;28;20528;-80
2023/04/13 13:36:25;;;;;;;4.87;1.73;;;14.30;42.60;;;;;;5098231;28;20441;-80
2023/04/13 13:38:52;;;;;;;2.60;1.57;;;;;;;;;;5098062;28;20449;-80
2023/04/13 13:41:21;;;;;;;1.87;1.43;;;15.10;74.20;;;;;;5099296;28;20476;-79
2023/04/13 13:43:48;;;;;;;3.73;2.00;;;14.50;58.40;;;;;;5098837;28;20851;-81
2023/04/13 13:46:15;;;;;;;2.13;1.50;;;;;;;;;;5099803;28;20480;-80
2023/04/13 13:48:43;;;;;;;10.73;1.80;;;;;;;;;;5099791;28;20896;-80
2023/04/13 13:51:10;;;;;;;1.80;1.70;;;;;;;;;;5099654;28;20441;-81
2023/04/13 13:53:37;;;;;;;2.40;1.77;;;;;;;;;;5107987;28;20491;-80
2023/04/13 13:56:05;;;;;;;3.27;2.20;;;;;;;;;;5111707;28;20432;-79
2023/04/13 13:58:33;;;;;;;3.43;2.53;;;15.10;1.00;;;;;;5111272;28;20462;-79
2023/04/13 14:01:01;;;;;;;3.30;2.00;;;;;;;;;;5113137;28;20445;-81
2023/04/13 14:03:27;;;;;;;5.67;3.07;;;14.50;1.00;;;;;;5111972;28;20456;-83
2023/04/13 14:08:40;;;;;;;3.27;2.10;;;;;;;;;;5131100;27;20467;-84
2023/04/13 14:11:35;;;;;;;3.13;2.20;;;14.30;99.90;;;;;;5134151;28;20438;-85
2023/04/13 14:14:11;;;;;;;2.43;2.00;;;12.90;99.90;;;;;;5111999;28;20499;-86
2023/04/13 14:16:51;;;;;;;3.63;2.47;;;13.80;99.90;;;;;;5108943;28;20471;-86
2023/04/13 14:19:28;;;;;;;2.60;1.40;;;13.90;99.90;;;;;;5099221;28;20443;-89
2023/04/13 14:21:55;;;;;;;2.83;2.30;;;;;;;;;;5090106;28;20518;-88
2023/04/13 14:24:33;;;;;;;2.93;2.73;;;13.90;99.90;;;;;;5088521;28;20507;-86
2023/04/13 14:27:11;;;;;;;3.33;3.00;;;14.20;99.90;;;;;;5091478;28;20469;-88
2023/04/13 14:36:00;;;;;;;2.70;2.03;;;13.80;99.90;;;;;;5085006;28;20452;-90
2023/04/13 14:39:15;;;;;;;2.50;2.00;;;13.70;99.90;;;;;;5093165;28;20436;-88
2023/04/13 14:42:00;;;;;;;2.63;2.00;;;13.80;99.90;;;;;;5093765;28;20464;-88
2023/04/13 14:44:37;;;;;;;7.07;3.10;;;13.80;99.90;;;;;;5088497;28;20449;-90
2023/04/13 14:47:09;;;;;;;4.40;2.80;;;14.00;99.90;;;;;;5090243;28;20492;-90
2023/04/13 14:49:50;;;;;;;4.20;2.17;;;14.30;1.00;;;;;;5087716;28;20453;-89
2023/04/13 14:52:37;;;;;;;2.97;2.27;;;14.10;99.90;;;;;;5088894;28;20489;-89
2023/04/13 14:55:10;;;;;;;4.47;2.10;;;13.90;99.90;;;;;;5088994;28;20446;-90
2023/04/13 14:57:52;;;;;;;2.20;1.87;;;13.90;99.90;;;;;;5087483;28;20437;-90
2023/04/13 15:03:36;;;;;;;2.57;2.37;;;14.00;99.90;;;;;;5083722;28;20482;-87
2023/04/13 15:06:37;;;;;;;3.20;1.53;;;14.10;99.90;;;;;;5086164;28;20503;-87
2023/04/13 15:09:40;;;;;;;;;;;;;;;;;;;;;
2023/04/13 15:12:26;;;;;;;6.17;2.20;;;13.80;99.90;;;;;;5054401;28;20480;-87
2023/04/13 15:15:09;;;;;;;2.73;2.10;;;13.70;99.90;;;;;;5087201;28;20515;-88
2023/04/13 15:17:54;;;;;;;2.80;2.60;;;13.70;99.90;;;;;;5093938;28;20468;-88
2023/04/13 15:23:30;;;;;;;6.07;2.40;;;13.60;99.90;;;;;;5083223;28;20457;-87
2023/04/13 16:21:04;;;;;;;5.83;1.80;;;13.70;1.00;;;;;;5447675;22;20500;-89
2023/04/13 16:23:37;;;;;;;2.87;1.63;;;13.60;99.90;;;;;;5069999;28;20525;-89
2023/04/13 16:26:05;;;;;;;2.90;2.00;;;13.30;99.90;;;;;;5077599;28;20525;-89
2023/04/13 16:28:36;;;;;;;2.73;2.50;;;;;;;;;;5078086;28;20488;-90
2023/04/13 16:31:03;;;;;;;3.50;3.20;;;;;;;;;;5069149;28;20449;-89
2023/04/13 16:33:30;;;;;;;3.03;2.17;;;13.50;1.00;;;;;;5077799;28;20450;-89
2023/04/13 16:39:33;;;;;;;1.90;1.60;;;;;;;;;;5070641;28;20458;-90
2023/04/13 16:42:03;;;;;;;3.73;2.17;;;13.60;1.00;;;;;;5068372;28;20478;-89
2023/04/13 16:44:32;;;;;;;2.73;2.50;;;;;;;;;;5067444;28;20458;-91
2023/04/13 16:46:59;;;;;;;2.70;2.50;;;;;;;;;;5066048;28;21076;-90
2023/04/13 16:49:27;;;;;;;5.00;4.37;;;;;;;;;;5062882;28;20536;-90
2023/04/13 16:51:55;;;;;;;6.50;3.83;;;13.20;99.90;;;;;;5062240;28;20457;-89
2023/04/13 16:54:23;;;;;;;4.13;3.73;;;;;;;;;;5063025;28;20473;-89
2023/04/13 16:56:53;;;;;;;2.67;2.47;;;13.30;99.90;;;;;;5064273;28;20450;-90
2023/04/13 16:59:33;;;;;;;6.43;3.00;;;13.70;99.90;;;;;;5063729;28;20447;-91
2023/04/13 17:02:09;;;;;;;2.93;2.30;;;13.30;99.90;;;;;;5069270;28;20533;-90
2023/04/13 17:07:33;;;;;;;7.43;4.30;;;13.30;99.90;;;;;;5063772;28;20478;-91
2023/04/13 17:10:08;;;;;;;6.37;4.27;;;13.30;99.90;;;;;;5065240;28;20488;-89
2023/04/13 17:16:03;;;;;;;5.67;3.87;;;13.20;99.90;;;;;;5065212;28;20427;-91
2023/04/13 17:18:45;;;;;;;3.30;3.00;;;13.10;1.00;;;;;;5064033;28;20473;-90
2023/04/13 17:21:32;;;;;;;4.00;3.00;;;13.10;99.90;;;;;;5064942;28;20465;-91
2023/04/13 17:27:07;;;;;;;2.40;2.20;;;13.00;99.90;;;;;;5060930;28;20478;-90
2023/04/13 17:29:43;;;;;;;2.83;2.50;;;;;;;;;;5065031;28;20415;-90
2023/04/13 17:32:12;;;;;;;5.77;3.37;;;;;;;;;;5072709;28;20474;-89
2023/04/13 17:34:39;;;;;;;3.60;2.33;;;12.90;99.90;;;;;;5076605;28;20506;-89
2023/04/13 17:37:08;;;;;;;7.10;2.80;;;;;;;;;;5075867;28;20454;-89
2023/04/13 17:47:34;;;;;;;;;;;;;;;;;;;;;
2023/04/13 17:51:02;;;;;;;3.90;2.43;;;12.30;1.00;;;;;;5041697;28;20454;-91
2023/04/13 18:10:30;;;;;;;4.07;2.63;;;12.10;99.90;;;;;;4962143;28;20474;-89
2023/04/13 18:40:17;;;;;;;4.77;3.23;;;11.10;1.00;;;;;;5053163;28;20421;-92
2023/04/13 18:43:22;;;;;;;4.97;4.00;;;11.10;1.00;;;;;;4986587;28;20571;-91
2023/04/13 18:56:38;;;;;;;9.00;5.60;;;10.80;1.00;;;;;;4817598;29;20429;-90
2023/04/13 18:59:43;;;;;;;7.23;5.73;;;10.80;1.00;;;;;;4798660;29;20476;-91
2023/04/13 19:39:00;;;;;;;15.90;10.00;;;10.60;1.00;;;;;;4908665;29;20458;-91
2023/04/13 19:43:54;;;;;;;11.33;8.80;;;10.60;1.00;;;;;;5082122;22;20536;-90
2023/04/13 19:46:21;;;;;;;10.30;8.50;;;;;;;;;;5044955;28;20550;-90
2023/04/13 19:49:00;;;;;;;9.57;8.30;;;10.80;48.90;;;;;;5044877;28;20461;-90
2023/04/13 19:51:28;;;;;;;8.60;7.27;;;10.50;1.00;;;;;;5045927;28;20449;-90
2023/04/13 19:57:03;;;;;;;11.80;7.80;;;10.80;7.60;;;;;;5046115;28;20417;-90
2023/04/13 19:59:56;;;;;;;9.17;6.83;;;10.30;99.90;;;;;;5053623;28;20439;-90
2023/04/13 20:02:23;;;;;;;10.47;8.87;;;9.90;99.90;;;;;;5056900;28;20520;-90
2023/04/13 20:11:02;;;;;;;11.80;6.80;;;10.10;99.90;;;;;;5040446;28;20442;-89
2023/04/13 20:14:25;;;;;;;9.83;6.40;;;10.10;99.90;;;;;;5053399;28;20481;-91
2023/04/13 20:17:46;;;;;;;8.40;6.83;;;10.10;99.90;;;;;;5051371;28;20452;-91
2023/04/13 20:21:04;;;;;;;10.10;7.70;;;10.20;99.90;;;;;;4975264;28;20440;-90
2023/04/13 20:24:41;;;;;;;10.13;7.50;;;10.00;99.90;;;;;;4919812;29;20516;-92
2023/04/13 20:38:28;;;;;;;9.33;7.60;;;9.90;41.40;;;;;;4916428;29;20471;-91
2023/04/13 21:31:34;;;;;;;10.03;7.47;;;9.20;1.00;;;;;;5130007;22;20445;-90
2023/04/13 21:38:28;;;;;;;10.00;8.00;;;9.30;99.90;;;;;;4849367;29;20442;-90
2023/04/13 21:41:07;;;;;;;14.70;9.77;;;9.00;1.00;;;;;;4970201;28;20471;-89
2023/04/13 21:43:41;;;;;;;16.67;9.70;;;;;;;;;;5040817;28;20489;-89
2023/04/13 21:47:00;;;;;;;;;;;;;;;;;;;;;
2023/04/13 21:52:59;;;;;;;18.27;10.60;;;9.00;99.90;;;;;;4956388;28;20474;-90
2023/04/13 21:55:30;;;;;;;13.63;11.47;;;9.10;1.00;;;;;;5041416;28;20452;-90
2023/04/13 22:01:38;;;;;;;17.47;10.93;;;9.20;1.00;;;;;;4942871;28;20409;-90
2023/04/13 22:04:15;;;;;;;21.23;11.93;;;9.10;99.90;;;;;;5024356;28;20480;-91
2023/04/13 22:15:32;;;;;;;15.53;11.10;;;8.90;99.90;;;;;;5278996;22;20470;-91
2023/04/13 22:17:59;;;;;;;14.67;11.40;;;;;;;;;;5060219;28;20517;-90
2023/04/13 22:20:29;;;;;;;16.20;10.73;;;9.00;99.90;;;;;;5060754;28;20500;-89
2023/04/13 22:22:56;;;;;;;11.80;9.10;;;8.90;99.90;;;;;;5060308;28;20495;-89
2023/04/13 22:25:26;;;;;;;19.10;11.10;;;9.20;99.90;;;;;;5060904;28;20475;-90
2023/04/13 22:27:54;;;;;;;24.53;16.20;;;;;;;;;;5060460;28;20473;-91
2023/04/13 22:30:21;;;;;;;16.97;13.43;;;;;;;;;;5060496;28;20444;-92
2023/04/13 22:33:03;;;;;;;19.33;11.10;;;8.60;99.90;;;;;;5059503;28;20450;-91
2023/04/13 22:35:30;;;;;;;18.03;12.37;;;9.40;20.70;;;;;;5097456;22;20435;-88
2023/04/13 22:37:57;;;;;;;16.93;11.63;;;9.10;1.00;;;;;;5045086;28;20431;-87
2023/04/13 22:40:25;;;;;;;19.80;12.80;;;9.10;1.00;;;;;;5041786;28;20508;-86
2023/04/13 22:42:53;;;;;;;22.53;12.50;;;9.10;1.00;;;;;;5043067;28;20452;-86
2023/04/13 22:45:20;;;;;;;15.20;11.80;;;10.20;1.00;;;;;;5042041;28;20435;-87
2023/04/13 22:47:47;;;;;;;22.77;14.70;;;9.00;1.00;;;;;;5039518;28;20455;-87
2023/04/13 22:50:14;;;;;;;18.50;13.33;;;8.90;1.00;;;;;;5042673;28;20453;-87
2023/04/13 22:52:41;;;;;;;16.80;10.57;;;9.00;1.00;;;;;;5041184;28;20657;-87
2023/04/13 22:55:09;;;;;;;16.53;14.53;;;8.40;1.00;;;;;;5049366;28;20822;-87
2023/04/13 22:57:37;;;;;;;19.50;13.90;;;8.90;1.00;;;;;;5051294;28;20478;-86
2023/04/13 23:00:05;;;;;;;15.07;11.80;;;8.80;1.00;;;;;;5053872;28;20474;-87
2023/04/13 23:02:32;;;;;;;22.73;12.30;;;8.90;28.90;;;;;;5053009;28;20461;-87
2023/04/13 23:04:59;;;;;;;16.43;11.27;;;8.90;29.90;;;;;;5049841;28;20854;-86
2023/04/13 23:07:26;;;;;;;14.90;11.33;;;8.90;1.00;;;;;;5047320;28;20463;-87
2023/04/13 23:09:53;;;;;;;15.70;11.10;;;8.90;99.90;;;;;;5045659;28;20448;-86
2023/04/13 23:12:20;;;;;;;11.60;9.70;;;;;;;;;;5045602;28;20453;-87
2023/04/13 23:14:48;;;;;;;21.43;10.87;;;8.90;99.90;;;;;;5050207;28;20434;-86
2023/04/13 23:17:15;;;;;;;14.17;9.27;;;8.90;99.90;;;;;;5049669;28;20439;-88
2023/04/13 23:19:42;;;;;;;11.97;9.10;;;9.00;99.90;;;;;;5049737;28;20447;-86
2023/04/13 23:22:08;;;;;;;12.63;10.67;;;9.00;96.90;;;;;;5044197;28;20555;-86
2023/04/13 23:24:36;;;;;;;18.63;12.47;;;9.00;99.90;;;;;;5046107;28;20449;-86
2023/04/13 23:27:02;;;;;;;15.47;11.90;;;9.00;1.00;;;;;;5050832;28;20594;-86
2023/04/13 23:29:29;;;;;;;16.93;11.57;;;9.00;1.00;;;;;;5043343;28;20459;-88
2023/04/13 23:31:57;;;;;;;17.90;9.87;;;8.90;1.00;;;;;;5041847;28;20447;-86
2023/04/13 23:34:24;;;;;;;16.30;10.57;;;8.80;17.10;;;;;;5041569;28;20864;-87
2023/04/13 23:36:51;;;;;;;14.33;9.80;;;8.80;1.00;;;;;;5042248;28;20518;-87
2023/04/13 23:39:20;;;;;;;15.27;10.00;;;8.80;1.00;;;;;;5050036;28;20459;-87
2023/04/13 23:41:47;;;;;;;16.57;10.83;;;8.80;99.90;;;;;;5040773;28;20483;-87
2023/04/13 23:44:14;;;;;;;14.70;9.73;;;8.90;1.00;;;;;;5040086;28;20542;-87
2023/04/13 23:46:42;;;;;;;16.10;10.33;;;8.90;1.00;;;;;;5051934;28;20480;-87
2023/04/13 23:49:11;;;;;;;17.03;10.63;;;8.90;99.90;;;;;;5041857;28;20523;-88
2023/04/13 23:51:38;;;;;;;12.33;10.47;;;9.00;99.90;;;;;;5041741;28;20427;-87
2023/04/13 23:54:05;;;;;;;14.13;10.60;;;9.10;1.00;;;;;;5043702;28;20521;-87
2023/04/13 23:56:32;;;;;;;11.90;10.70;;;9.10;99.90;;;;;;5058944;28;20450;-87
2023/04/13 23:58:59;;;;;;;12.27;10.50;;;9.10;99.90;;;;;;5047225;28;20481;-86
